Columbus, Ohio
Traffic Map
Current Weather Conditions
Columbus, Ohio
Scattered Clouds
Scattered Clouds

Feels Like: 5°
Wind Chill: Ceiling: Unl
Heat Index: Visibility: 10mi
Dew Point: -1° Wind: 6mph
Humidity: 58% Direction: 360° (N)
Pressure: 30.06in Gusts: 0mph
Raw Report DataKCMH 231351Z 36005KT 10SM FEW026 SCT032 07/M01 A3006 RMK AO2 SLP181 T00721006
Traffic Incident Summary
Active as of:
Severity:
Category:
InformationThere was an issue retrieving the traffic information for this location. Please try a different location or try again shortly.
Advertisements
At Last! Intellicast now available for iPhone and Android